Centerbrook, Connecticut
Current Conditions -  °F | °C
As of 11:15 PM on Wednesday 26 Nov 2014 (Local Time) from KSNC Reporting Station
Unknown Precip Unknown Precip  
Wind Chill: 24°   Ceiling: 800
Heat Index: 34°   Visibility: 2.5mi
Dew Point: 32°   Wind: 15mph
Humidity: 93%   Direction: 340°NNW
Pressure: 29.69"   Gusts: 28mph
Location:  41.35°N, 72.42°W
Report Text: KSNC 270415Z AUTO 34013G24KT 2 1/2SM UP SCT002 BKN008 OVC025 01/00 A2969 RMK AO2 P0006
Loading
Personal Weather Stations






























Interactive Weather Map New forecast layout! Learn more

10-Day Weather Forecast

Advertisements
Track Severe Weather on mobile